sensor_id;sensor_type;location;lat;lon;timestamp;P1;durP1;ratioP1;P2;durP2;ratioP2
37903;SDS011;23738;50.422;18.758;2023-12-14T00:00:24;86.70;;;41.60;;
37903;SDS011;23738;50.422;18.758;2023-12-14T00:02:54;82.80;;;41.50;;
37903;SDS011;23738;50.422;18.758;2023-12-14T00:05:24;85.10;;;37.00;;
37903;SDS011;23738;50.422;18.758;2023-12-14T00:07:54;80.50;;;36.30;;
37903;SDS011;23738;50.422;18.758;2023-12-14T00:10:23;80.10;;;36.50;;
37903;SDS011;23738;50.422;18.758;2023-12-14T00:12:54;70.70;;;34.10;;
37903;SDS011;23738;50.422;18.758;2023-12-14T00:15:23;64.80;;;35.10;;
37903;SDS011;23738;50.422;18.758;2023-12-14T00:17:53;72.20;;;35.90;;
37903;SDS011;23738;50.422;18.758;2023-12-14T00:20:23;76.10;;;37.50;;
37903;SDS011;23738;50.422;18.758;2023-12-14T00:22:52;73.10;;;34.70;;
37903;SDS011;23738;50.422;18.758;2023-12-14T00:25:22;61.00;;;31.20;;
37903;SDS011;23738;50.422;18.758;2023-12-14T00:27:52;69.30;;;33.10;;
37903;SDS011;23738;50.422;18.758;2023-12-14T00:30:22;65.20;;;34.70;;
37903;SDS011;23738;50.422;18.758;2023-12-14T00:32:52;67.40;;;37.50;;
37903;SDS011;23738;50.422;18.758;2023-12-14T00:35:22;71.00;;;36.40;;
37903;SDS011;23738;50.422;18.758;2023-12-14T00:37:52;65.70;;;34.90;;
37903;SDS011;23738;50.422;18.758;2023-12-14T00:40:22;60.10;;;32.20;;
37903;SDS011;23738;50.422;18.758;2023-12-14T00:42:53;58.10;;;31.00;;
37903;SDS011;23738;50.422;18.758;2023-12-14T00:45:24;58.30;;;31.70;;
37903;SDS011;23738;50.422;18.758;2023-12-14T00:47:54;59.70;;;31.40;;
37903;SDS011;23738;50.422;18.758;2023-12-14T00:50:24;62.80;;;34.00;;
37903;SDS011;23738;50.422;18.758;2023-12-14T00:52:54;61.80;;;34.70;;
37903;SDS011;23738;50.422;18.758;2023-12-14T00:55:24;65.20;;;35.20;;
37903;SDS011;23738;50.422;18.758;2023-12-14T00:57:56;68.50;;;33.80;;
37903;SDS011;23738;50.422;18.758;2023-12-14T01:00:26;61.70;;;32.60;;
37903;SDS011;23738;50.422;18.758;2023-12-14T01:02:57;70.00;;;35.30;;
37903;SDS011;23738;50.422;18.758;2023-12-14T01:05:27;61.20;;;32.60;;
37903;SDS011;23738;50.422;18.758;2023-12-14T01:07:57;65.10;;;34.60;;
37903;SDS011;23738;50.422;18.758;2023-12-14T01:10:26;66.00;;;34.40;;
37903;SDS011;23738;50.422;18.758;2023-12-14T01:12:56;64.60;;;35.10;;
37903;SDS011;23738;50.422;18.758;2023-12-14T01:15:26;63.20;;;31.90;;
37903;SDS011;23738;50.422;18.758;2023-12-14T01:17:56;62.00;;;32.50;;
37903;SDS011;23738;50.422;18.758;2023-12-14T01:20:26;69.50;;;35.90;;
37903;SDS011;23738;50.422;18.758;2023-12-14T01:22:56;63.00;;;32.00;;
37903;SDS011;23738;50.422;18.758;2023-12-14T01:25:27;64.10;;;34.10;;
37903;SDS011;23738;50.422;18.758;2023-12-14T01:27:57;73.20;;;36.00;;
37903;SDS011;23738;50.422;18.758;2023-12-14T01:30:27;75.00;;;36.30;;
37903;SDS011;23738;50.422;18.758;2023-12-14T01:32:57;71.30;;;33.00;;
37903;SDS011;23738;50.422;18.758;2023-12-14T01:35:27;61.60;;;31.90;;
37903;SDS011;23738;50.422;18.758;2023-12-14T01:37:57;69.50;;;33.90;;
37903;SDS011;23738;50.422;18.758;2023-12-14T01:40:27;64.90;;;33.00;;
37903;SDS011;23738;50.422;18.758;2023-12-14T01:43:07;60.50;;;32.60;;
37903;SDS011;23738;50.422;18.758;2023-12-14T01:45:37;67.50;;;33.60;;
37903;SDS011;23738;50.422;18.758;2023-12-14T01:48:08;64.90;;;33.70;;
37903;SDS011;23738;50.422;18.758;2023-12-14T01:50:38;62.70;;;31.60;;
37903;SDS011;23738;50.422;18.758;2023-12-14T01:53:08;60.80;;;30.50;;
37903;SDS011;23738;50.422;18.758;2023-12-14T01:55:38;59.40;;;30.60;;
37903;SDS011;23738;50.422;18.758;2023-12-14T01:58:08;61.20;;;30.80;;
37903;SDS011;23738;50.422;18.758;2023-12-14T02:00:39;60.90;;;32.20;;
37903;SDS011;23738;50.422;18.758;2023-12-14T02:03:12;64.60;;;33.00;;
37903;SDS011;23738;50.422;18.758;2023-12-14T02:05:42;73.70;;;35.30;;
37903;SDS011;23738;50.422;18.758;2023-12-14T02:08:12;67.00;;;31.10;;
37903;SDS011;23738;50.422;18.758;2023-12-14T02:10:42;71.20;;;31.70;;
37903;SDS011;23738;50.422;18.758;2023-12-14T02:13:12;65.60;;;32.10;;
37903;SDS011;23738;50.422;18.758;2023-12-14T02:15:42;66.70;;;32.10;;
37903;SDS011;23738;50.422;18.758;2023-12-14T02:18:13;67.80;;;33.00;;
37903;SDS011;23738;50.422;18.758;2023-12-14T02:20:43;79.20;;;35.10;;
37903;SDS011;23738;50.422;18.758;2023-12-14T02:23:15;81.80;;;35.30;;
37903;SDS011;23738;50.422;18.758;2023-12-14T02:25:44;70.80;;;30.40;;
37903;SDS011;23738;50.422;18.758;2023-12-14T02:28:14;69.60;;;31.70;;
37903;SDS011;23738;50.422;18.758;2023-12-14T02:30:44;65.50;;;31.30;;
37903;SDS011;23738;50.422;18.758;2023-12-14T02:33:14;75.10;;;33.70;;
37903;SDS011;23738;50.422;18.758;2023-12-14T02:35:44;77.90;;;36.20;;
37903;SDS011;23738;50.422;18.758;2023-12-14T02:38:15;78.50;;;37.00;;
37903;SDS011;23738;50.422;18.758;2023-12-14T02:40:46;74.60;;;35.80;;
37903;SDS011;23738;50.422;18.758;2023-12-14T02:43:19;83.60;;;35.50;;
37903;SDS011;23738;50.422;18.758;2023-12-14T02:45:50;75.30;;;34.60;;
37903;SDS011;23738;50.422;18.758;2023-12-14T02:48:21;79.10;;;35.40;;
37903;SDS011;23738;50.422;18.758;2023-12-14T02:50:51;77.30;;;34.20;;
37903;SDS011;23738;50.422;18.758;2023-12-14T02:53:21;81.80;;;38.70;;
37903;SDS011;23738;50.422;18.758;2023-12-14T02:55:51;82.10;;;36.60;;
37903;SDS011;23738;50.422;18.758;2023-12-14T02:58:21;82.40;;;37.40;;
37903;SDS011;23738;50.422;18.758;2023-12-14T03:00:51;86.30;;;36.90;;
37903;SDS011;23738;50.422;18.758;2023-12-14T03:03:22;78.00;;;32.00;;
37903;SDS011;23738;50.422;18.758;2023-12-14T03:05:54;82.20;;;34.70;;
37903;SDS011;23738;50.422;18.758;2023-12-14T03:08:23;73.10;;;33.40;;
37903;SDS011;23738;50.422;18.758;2023-12-14T03:10:53;89.20;;;37.90;;
37903;SDS011;23738;50.422;18.758;2023-12-14T03:13:24;94.10;;;38.90;;
37903;SDS011;23738;50.422;18.758;2023-12-14T03:15:55;80.90;;;37.20;;
37903;SDS011;23738;50.422;18.758;2023-12-14T03:18:24;105.30;;;37.70;;
37903;SDS011;23738;50.422;18.758;2023-12-14T03:20:54;88.00;;;34.00;;
37903;SDS011;23738;50.422;18.758;2023-12-14T03:23:24;92.20;;;36.00;;
37903;SDS011;23738;50.422;18.758;2023-12-14T03:25:54;90.60;;;37.20;;
37903;SDS011;23738;50.422;18.758;2023-12-14T03:28:24;100.50;;;40.10;;
37903;SDS011;23738;50.422;18.758;2023-12-14T03:30:54;105.00;;;40.30;;
37903;SDS011;23738;50.422;18.758;2023-12-14T03:33:24;104.20;;;39.90;;
37903;SDS011;23738;50.422;18.758;2023-12-14T03:35:54;95.30;;;37.10;;
37903;SDS011;23738;50.422;18.758;2023-12-14T03:38:25;92.90;;;35.60;;
37903;SDS011;23738;50.422;18.758;2023-12-14T03:40:55;101.10;;;38.70;;
37903;SDS011;23738;50.422;18.758;2023-12-14T03:43:25;98.00;;;37.30;;
37903;SDS011;23738;50.422;18.758;2023-12-14T03:45:54;87.60;;;35.30;;
37903;SDS011;23738;50.422;18.758;2023-12-14T03:48:24;98.70;;;39.70;;
37903;SDS011;23738;50.422;18.758;2023-12-14T03:50:54;98.80;;;38.60;;
37903;SDS011;23738;50.422;18.758;2023-12-14T03:53:26;103.20;;;37.20;;
37903;SDS011;23738;50.422;18.758;2023-12-14T03:55:56;95.70;;;34.60;;
37903;SDS011;23738;50.422;18.758;2023-12-14T03:58:26;99.10;;;37.90;;
37903;SDS011;23738;50.422;18.758;2023-12-14T04:00:56;95.40;;;36.10;;
37903;SDS011;23738;50.422;18.758;2023-12-14T04:03:26;106.30;;;40.50;;
37903;SDS011;23738;50.422;18.758;2023-12-14T04:05:56;101.50;;;37.60;;
37903;SDS011;23738;50.422;18.758;2023-12-14T04:08:26;103.30;;;37.70;;
37903;SDS011;23738;50.422;18.758;2023-12-14T04:10:55;104.90;;;36.40;;
37903;SDS011;23738;50.422;18.758;2023-12-14T04:13:25;97.80;;;35.70;;
37903;SDS011;23738;50.422;18.758;2023-12-14T04:15:56;92.60;;;37.00;;
37903;SDS011;23738;50.422;18.758;2023-12-14T04:18:26;99.00;;;36.10;;
37903;SDS011;23738;50.422;18.758;2023-12-14T04:20:56;94.50;;;36.30;;
37903;SDS011;23738;50.422;18.758;2023-12-14T04:23:26;104.20;;;40.40;;
37903;SDS011;23738;50.422;18.758;2023-12-14T04:25:57;96.80;;;37.90;;
37903;SDS011;23738;50.422;18.758;2023-12-14T04:28:27;97.40;;;36.40;;
37903;SDS011;23738;50.422;18.758;2023-12-14T04:31:00;90.80;;;34.20;;
37903;SDS011;23738;50.422;18.758;2023-12-14T04:33:30;93.30;;;35.20;;
37903;SDS011;23738;50.422;18.758;2023-12-14T04:36:01;93.10;;;35.30;;
37903;SDS011;23738;50.422;18.758;2023-12-14T04:38:32;104.20;;;38.00;;
37903;SDS011;23738;50.422;18.758;2023-12-14T04:41:02;96.00;;;36.90;;
37903;SDS011;23738;50.422;18.758;2023-12-14T04:43:32;97.60;;;38.20;;
37903;SDS011;23738;50.422;18.758;2023-12-14T04:46:02;99.60;;;35.30;;
37903;SDS011;23738;50.422;18.758;2023-12-14T04:48:32;88.60;;;32.70;;
37903;SDS011;23738;50.422;18.758;2023-12-14T04:51:04;91.10;;;36.30;;
37903;SDS011;23738;50.422;18.758;2023-12-14T04:53:38;94.70;;;36.50;;
37903;SDS011;23738;50.422;18.758;2023-12-14T04:56:11;92.80;;;36.30;;
37903;SDS011;23738;50.422;18.758;2023-12-14T04:58:41;97.10;;;36.20;;
37903;SDS011;23738;50.422;18.758;2023-12-14T05:01:11;94.30;;;37.70;;
37903;SDS011;23738;50.422;18.758;2023-12-14T05:03:41;91.70;;;33.70;;
37903;SDS011;23738;50.422;18.758;2023-12-14T05:06:11;95.30;;;36.00;;
37903;SDS011;23738;50.422;18.758;2023-12-14T05:08:41;92.40;;;35.90;;
37903;SDS011;23738;50.422;18.758;2023-12-14T05:11:11;100.50;;;33.80;;
37903;SDS011;23738;50.422;18.758;2023-12-14T05:13:41;98.60;;;37.20;;
37903;SDS011;23738;50.422;18.758;2023-12-14T05:16:14;94.50;;;37.10;;
37903;SDS011;23738;50.422;18.758;2023-12-14T05:18:44;106.30;;;36.30;;
37903;SDS011;23738;50.422;18.758;2023-12-14T05:21:17;95.50;;;34.90;;
37903;SDS011;23738;50.422;18.758;2023-12-14T05:23:47;90.70;;;32.80;;
37903;SDS011;23738;50.422;18.758;2023-12-14T05:26:17;93.80;;;33.70;;
37903;SDS011;23738;50.422;18.758;2023-12-14T05:28:47;86.10;;;35.90;;
37903;SDS011;23738;50.422;18.758;2023-12-14T05:31:18;76.70;;;30.80;;
37903;SDS011;23738;50.422;18.758;2023-12-14T05:33:48;90.20;;;36.20;;
37903;SDS011;23738;50.422;18.758;2023-12-14T05:36:18;95.50;;;37.20;;
37903;SDS011;23738;50.422;18.758;2023-12-14T05:38:48;86.40;;;34.20;;
37903;SDS011;23738;50.422;18.758;2023-12-14T05:41:19;89.40;;;32.00;;
37903;SDS011;23738;50.422;18.758;2023-12-14T05:43:48;84.10;;;33.00;;
37903;SDS011;23738;50.422;18.758;2023-12-14T05:46:22;86.60;;;32.20;;
37903;SDS011;23738;50.422;18.758;2023-12-14T05:48:52;89.20;;;34.90;;
37903;SDS011;23738;50.422;18.758;2023-12-14T05:51:29;78.00;;;31.90;;
37903;SDS011;23738;50.422;18.758;2023-12-14T05:54:00;77.00;;;31.30;;
37903;SDS011;23738;50.422;18.758;2023-12-14T05:56:30;78.80;;;30.30;;
37903;SDS011;23738;50.422;18.758;2023-12-14T05:59:00;85.00;;;33.10;;
37903;SDS011;23738;50.422;18.758;2023-12-14T06:01:30;84.00;;;33.60;;
37903;SDS011;23738;50.422;18.758;2023-12-14T06:04:00;70.00;;;31.50;;
37903;SDS011;23738;50.422;18.758;2023-12-14T06:06:30;70.70;;;31.10;;
37903;SDS011;23738;50.422;18.758;2023-12-14T06:09:00;69.50;;;31.00;;
37903;SDS011;23738;50.422;18.758;2023-12-14T06:11:33;68.90;;;30.90;;
37903;SDS011;23738;50.422;18.758;2023-12-14T06:14:03;55.70;;;25.80;;
37903;SDS011;23738;50.422;18.758;2023-12-14T06:16:33;61.00;;;25.60;;
37903;SDS011;23738;50.422;18.758;2023-12-14T06:19:04;53.70;;;26.90;;
37903;SDS011;23738;50.422;18.758;2023-12-14T06:21:34;52.20;;;25.00;;
37903;SDS011;23738;50.422;18.758;2023-12-14T06:24:06;60.60;;;27.60;;
37903;SDS011;23738;50.422;18.758;2023-12-14T06:26:36;63.50;;;28.70;;
37903;SDS011;23738;50.422;18.758;2023-12-14T06:29:11;56.20;;;27.80;;
37903;SDS011;23738;50.422;18.758;2023-12-14T06:31:41;58.40;;;26.30;;
37903;SDS011;23738;50.422;18.758;2023-12-14T06:34:13;59.40;;;25.30;;
37903;SDS011;23738;50.422;18.758;2023-12-14T06:36:43;56.90;;;26.70;;
37903;SDS011;23738;50.422;18.758;2023-12-14T06:39:13;93.50;;;42.20;;
37903;SDS011;23738;50.422;18.758;2023-12-14T06:41:46;75.70;;;36.60;;
37903;SDS011;23738;50.422;18.758;2023-12-14T06:44:16;72.70;;;35.40;;
37903;SDS011;23738;50.422;18.758;2023-12-14T06:46:46;92.90;;;44.20;;
37903;SDS011;23738;50.422;18.758;2023-12-14T06:49:16;77.10;;;35.90;;
37903;SDS011;23738;50.422;18.758;2023-12-14T06:51:46;65.90;;;31.20;;
37903;SDS011;23738;50.422;18.758;2023-12-14T06:54:15;84.00;;;38.60;;
37903;SDS011;23738;50.422;18.758;2023-12-14T06:56:45;73.70;;;33.30;;
37903;SDS011;23738;50.422;18.758;2023-12-14T06:59:15;95.80;;;44.90;;
37903;SDS011;23738;50.422;18.758;2023-12-14T07:01:46;82.60;;;38.40;;
37903;SDS011;23738;50.422;18.758;2023-12-14T07:04:15;87.70;;;39.50;;
37903;SDS011;23738;50.422;18.758;2023-12-14T07:06:51;88.60;;;39.50;;
37903;SDS011;23738;50.422;18.758;2023-12-14T07:09:21;88.10;;;38.30;;
37903;SDS011;23738;50.422;18.758;2023-12-14T07:11:52;76.50;;;33.20;;
37903;SDS011;23738;50.422;18.758;2023-12-14T07:14:22;82.90;;;35.40;;
37903;SDS011;23738;50.422;18.758;2023-12-14T07:16:52;88.90;;;39.30;;
37903;SDS011;23738;50.422;18.758;2023-12-14T07:19:22;95.70;;;42.60;;
37903;SDS011;23738;50.422;18.758;2023-12-14T07:21:52;107.50;;;46.10;;
37903;SDS011;23738;50.422;18.758;2023-12-14T07:24:22;93.70;;;37.50;;
37903;SDS011;23738;50.422;18.758;2023-12-14T07:26:51;83.40;;;32.70;;
37903;SDS011;23738;50.422;18.758;2023-12-14T07:29:21;84.80;;;34.50;;
37903;SDS011;23738;50.422;18.758;2023-12-14T07:31:51;77.60;;;34.40;;
37903;SDS011;23738;50.422;18.758;2023-12-14T07:34:21;77.60;;;34.70;;
37903;SDS011;23738;50.422;18.758;2023-12-14T07:36:51;82.40;;;38.70;;
37903;SDS011;23738;50.422;18.758;2023-12-14T07:39:21;79.20;;;35.90;;
37903;SDS011;23738;50.422;18.758;2023-12-14T07:41:51;79.70;;;32.80;;
37903;SDS011;23738;50.422;18.758;2023-12-14T07:44:20;70.00;;;30.80;;
37903;SDS011;23738;50.422;18.758;2023-12-14T07:46:52;66.80;;;29.80;;
37903;SDS011;23738;50.422;18.758;2023-12-14T07:49:22;73.60;;;31.90;;
37903;SDS011;23738;50.422;18.758;2023-12-14T07:51:52;78.90;;;36.40;;
37903;SDS011;23738;50.422;18.758;2023-12-14T07:54:22;80.90;;;35.80;;
37903;SDS011;23738;50.422;18.758;2023-12-14T07:56:53;76.80;;;35.70;;
37903;SDS011;23738;50.422;18.758;2023-12-14T07:59:23;81.80;;;34.70;;
37903;SDS011;23738;50.422;18.758;2023-12-14T08:01:53;78.30;;;35.60;;
37903;SDS011;23738;50.422;18.758;2023-12-14T08:04:23;74.70;;;33.10;;
37903;SDS011;23738;50.422;18.758;2023-12-14T08:06:52;71.10;;;33.10;;
37903;SDS011;23738;50.422;18.758;2023-12-14T08:09:25;73.10;;;34.70;;
37903;SDS011;23738;50.422;18.758;2023-12-14T08:11:55;75.80;;;36.40;;
37903;SDS011;23738;50.422;18.758;2023-12-14T08:14:25;80.10;;;37.00;;
37903;SDS011;23738;50.422;18.758;2023-12-14T08:16:55;66.60;;;29.50;;
37903;SDS011;23738;50.422;18.758;2023-12-14T08:19:25;64.70;;;28.30;;
37903;SDS011;23738;50.422;18.758;2023-12-14T08:21:55;56.20;;;27.40;;
37903;SDS011;23738;50.422;18.758;2023-12-14T08:24:25;55.70;;;25.70;;
37903;SDS011;23738;50.422;18.758;2023-12-14T08:26:55;94.70;;;50.00;;
37903;SDS011;23738;50.422;18.758;2023-12-14T08:29:25;106.30;;;54.50;;
37903;SDS011;23738;50.422;18.758;2023-12-14T08:31:55;79.00;;;36.50;;
37903;SDS011;23738;50.422;18.758;2023-12-14T08:34:26;81.70;;;35.60;;
37903;SDS011;23738;50.422;18.758;2023-12-14T08:36:56;56.90;;;27.30;;
37903;SDS011;23738;50.422;18.758;2023-12-14T08:39:26;67.70;;;30.40;;
37903;SDS011;23738;50.422;18.758;2023-12-14T08:41:56;65.20;;;31.50;;
37903;SDS011;23738;50.422;18.758;2023-12-14T08:44:25;94.60;;;41.60;;
37903;SDS011;23738;50.422;18.758;2023-12-14T08:46:55;99.60;;;40.00;;
37903;SDS011;23738;50.422;18.758;2023-12-14T08:49:24;85.70;;;38.80;;
37903;SDS011;23738;50.422;18.758;2023-12-14T08:51:54;82.00;;;35.40;;
37903;SDS011;23738;50.422;18.758;2023-12-14T08:54:24;72.80;;;34.90;;
37903;SDS011;23738;50.422;18.758;2023-12-14T08:56:54;60.20;;;30.80;;
37903;SDS011;23738;50.422;18.758;2023-12-14T08:59:25;64.90;;;33.70;;
37903;SDS011;23738;50.422;18.758;2023-12-14T09:01:55;63.90;;;31.70;;
37903;SDS011;23738;50.422;18.758;2023-12-14T09:04:24;64.20;;;31.80;;
37903;SDS011;23738;50.422;18.758;2023-12-14T09:06:54;67.30;;;30.20;;
37903;SDS011;23738;50.422;18.758;2023-12-14T09:09:24;55.60;;;25.20;;
37903;SDS011;23738;50.422;18.758;2023-12-14T09:11:53;59.40;;;26.30;;
37903;SDS011;23738;50.422;18.758;2023-12-14T09:14:23;62.20;;;25.90;;
37903;SDS011;23738;50.422;18.758;2023-12-14T09:16:53;62.90;;;28.30;;
37903;SDS011;23738;50.422;18.758;2023-12-14T09:19:23;60.40;;;26.90;;
37903;SDS011;23738;50.422;18.758;2023-12-14T09:21:53;60.50;;;28.60;;
37903;SDS011;23738;50.422;18.758;2023-12-14T09:24:22;54.20;;;26.70;;
37903;SDS011;23738;50.422;18.758;2023-12-14T09:26:52;52.30;;;22.70;;
37903;SDS011;23738;50.422;18.758;2023-12-14T09:29:22;61.10;;;27.70;;
37903;SDS011;23738;50.422;18.758;2023-12-14T09:31:52;56.40;;;25.80;;
37903;SDS011;23738;50.422;18.758;2023-12-14T09:34:22;52.80;;;25.90;;
37903;SDS011;23738;50.422;18.758;2023-12-14T09:36:52;59.60;;;27.60;;
37903;SDS011;23738;50.422;18.758;2023-12-14T09:39:21;63.30;;;28.40;;
37903;SDS011;23738;50.422;18.758;2023-12-14T09:41:51;63.70;;;29.40;;
37903;SDS011;23738;50.422;18.758;2023-12-14T09:44:30;66.10;;;28.80;;
37903;SDS011;23738;50.422;18.758;2023-12-14T09:47:03;68.40;;;28.60;;
37903;SDS011;23738;50.422;18.758;2023-12-14T09:49:34;69.60;;;28.90;;
37903;SDS011;23738;50.422;18.758;2023-12-14T09:52:07;68.50;;;30.00;;
37903;SDS011;23738;50.422;18.758;2023-12-14T09:54:37;61.70;;;28.00;;
37903;SDS011;23738;50.422;18.758;2023-12-14T09:57:07;67.40;;;30.80;;
37903;SDS011;23738;50.422;18.758;2023-12-14T09:59:39;59.50;;;28.90;;
37903;SDS011;23738;50.422;18.758;2023-12-14T10:02:10;64.80;;;27.50;;
37903;SDS011;23738;50.422;18.758;2023-12-14T10:04:42;60.30;;;27.30;;
37903;SDS011;23738;50.422;18.758;2023-12-14T10:07:12;70.40;;;28.30;;
37903;SDS011;23738;50.422;18.758;2023-12-14T10:09:43;60.80;;;28.50;;
37903;SDS011;23738;50.422;18.758;2023-12-14T10:12:13;67.30;;;31.90;;
37903;SDS011;23738;50.422;18.758;2023-12-14T10:14:42;66.40;;;32.50;;
37903;SDS011;23738;50.422;18.758;2023-12-14T10:17:16;65.10;;;32.10;;
37903;SDS011;23738;50.422;18.758;2023-12-14T10:19:48;65.60;;;31.40;;
37903;SDS011;23738;50.422;18.758;2023-12-14T10:22:18;51.30;;;25.80;;
37903;SDS011;23738;50.422;18.758;2023-12-14T10:24:49;69.60;;;31.30;;
37903;SDS011;23738;50.422;18.758;2023-12-14T10:27:19;60.60;;;29.70;;
37903;SDS011;23738;50.422;18.758;2023-12-14T10:29:48;49.30;;;24.90;;
37903;SDS011;23738;50.422;18.758;2023-12-14T10:32:18;59.40;;;27.80;;
37903;SDS011;23738;50.422;18.758;2023-12-14T10:34:48;79.20;;;33.10;;
37903;SDS011;23738;50.422;18.758;2023-12-14T10:37:18;59.90;;;27.00;;
37903;SDS011;23738;50.422;18.758;2023-12-14T10:39:49;119.90;;;41.60;;
37903;SDS011;23738;50.422;18.758;2023-12-14T10:42:21;69.20;;;29.70;;
37903;SDS011;23738;50.422;18.758;2023-12-14T10:44:54;70.00;;;29.90;;
37903;SDS011;23738;50.422;18.758;2023-12-14T10:47:26;61.30;;;27.80;;
37903;SDS011;23738;50.422;18.758;2023-12-14T10:49:57;66.80;;;28.80;;
37903;SDS011;23738;50.422;18.758;2023-12-14T10:52:29;45.20;;;22.30;;
37903;SDS011;23738;50.422;18.758;2023-12-14T10:55:02;47.00;;;24.10;;
37903;SDS011;23738;50.422;18.758;2023-12-14T10:57:37;38.90;;;23.00;;
37903;SDS011;23738;50.422;18.758;2023-12-14T11:00:08;45.20;;;25.20;;
37903;SDS011;23738;50.422;18.758;2023-12-14T11:02:40;38.10;;;21.80;;
37903;SDS011;23738;50.422;18.758;2023-12-14T11:05:14;56.40;;;27.10;;
37903;SDS011;23738;50.422;18.758;2023-12-14T11:07:50;82.00;;;35.00;;
37903;SDS011;23738;50.422;18.758;2023-12-14T11:10:22;59.00;;;29.80;;
37903;SDS011;23738;50.422;18.758;2023-12-14T11:12:59;48.80;;;26.90;;
37903;SDS011;23738;50.422;18.758;2023-12-14T11:15:36;51.20;;;29.10;;
37903;SDS011;23738;50.422;18.758;2023-12-14T11:18:23;44.70;;;24.60;;
37903;SDS011;23738;50.422;18.758;2023-12-14T11:20:58;37.40;;;21.50;;
37903;SDS011;23738;50.422;18.758;2023-12-14T11:23:29;33.60;;;21.20;;
37903;SDS011;23738;50.422;18.758;2023-12-14T11:26:02;44.10;;;23.10;;
37903;SDS011;23738;50.422;18.758;2023-12-14T11:28:34;40.50;;;22.40;;
37903;SDS011;23738;50.422;18.758;2023-12-14T11:31:05;43.20;;;24.20;;
37903;SDS011;23738;50.422;18.758;2023-12-14T11:33:39;56.30;;;30.50;;
37903;SDS011;23738;50.422;18.758;2023-12-14T11:36:10;57.70;;;31.50;;
37903;SDS011;23738;50.422;18.758;2023-12-14T11:38:41;58.10;;;29.60;;
37903;SDS011;23738;50.422;18.758;2023-12-14T11:41:11;47.30;;;23.90;;
37903;SDS011;23738;50.422;18.758;2023-12-14T11:43:43;38.00;;;21.00;;
37903;SDS011;23738;50.422;18.758;2023-12-14T11:46:14;39.90;;;22.20;;
37903;SDS011;23738;50.422;18.758;2023-12-14T11:48:46;65.80;;;33.10;;
37903;SDS011;23738;50.422;18.758;2023-12-14T11:51:18;65.20;;;33.40;;
37903;SDS011;23738;50.422;18.758;2023-12-14T11:53:47;118.70;;;54.80;;
37903;SDS011;23738;50.422;18.758;2023-12-14T11:56:18;53.80;;;27.00;;
37903;SDS011;23738;50.422;18.758;2023-12-14T11:58:50;55.90;;;27.90;;
37903;SDS011;23738;50.422;18.758;2023-12-14T12:01:21;64.30;;;30.00;;
37903;SDS011;23738;50.422;18.758;2023-12-14T12:03:52;49.80;;;26.00;;
37903;SDS011;23738;50.422;18.758;2023-12-14T12:06:23;49.10;;;25.20;;
37903;SDS011;23738;50.422;18.758;2023-12-14T12:08:54;43.50;;;23.00;;
37903;SDS011;23738;50.422;18.758;2023-12-14T12:11:24;42.20;;;23.60;;
37903;SDS011;23738;50.422;18.758;2023-12-14T12:13:54;39.90;;;21.10;;
37903;SDS011;23738;50.422;18.758;2023-12-14T12:16:26;32.40;;;18.60;;
37903;SDS011;23738;50.422;18.758;2023-12-14T12:18:56;34.00;;;19.00;;
37903;SDS011;23738;50.422;18.758;2023-12-14T12:21:26;37.40;;;21.10;;
37903;SDS011;23738;50.422;18.758;2023-12-14T12:23:55;30.90;;;20.10;;
37903;SDS011;23738;50.422;18.758;2023-12-14T12:26:25;44.70;;;23.50;;
37903;SDS011;23738;50.422;18.758;2023-12-14T12:28:55;69.30;;;34.60;;
37903;SDS011;23738;50.422;18.758;2023-12-14T12:31:24;46.90;;;23.30;;
37903;SDS011;23738;50.422;18.758;2023-12-14T12:33:54;40.90;;;23.90;;
37903;SDS011;23738;50.422;18.758;2023-12-14T12:36:25;58.70;;;31.20;;
37903;SDS011;23738;50.422;18.758;2023-12-14T12:38:58;45.40;;;24.90;;
37903;SDS011;23738;50.422;18.758;2023-12-14T12:41:28;45.50;;;24.10;;
37903;SDS011;23738;50.422;18.758;2023-12-14T12:43:57;37.80;;;21.20;;
37903;SDS011;23738;50.422;18.758;2023-12-14T12:46:32;31.90;;;20.00;;
37903;SDS011;23738;50.422;18.758;2023-12-14T12:49:03;32.60;;;20.10;;
37903;SDS011;23738;50.422;18.758;2023-12-14T12:51:34;31.50;;;21.30;;
37903;SDS011;23738;50.422;18.758;2023-12-14T12:54:04;31.10;;;19.60;;
37903;SDS011;23738;50.422;18.758;2023-12-14T12:56:34;32.80;;;20.40;;
37903;SDS011;23738;50.422;18.758;2023-12-14T12:59:04;32.10;;;17.30;;
37903;SDS011;23738;50.422;18.758;2023-12-14T13:01:34;27.10;;;19.20;;
37903;SDS011;23738;50.422;18.758;2023-12-14T13:04:04;31.40;;;19.90;;
37903;SDS011;23738;50.422;18.758;2023-12-14T13:06:45;29.20;;;19.00;;
37903;SDS011;23738;50.422;18.758;2023-12-14T13:09:16;33.20;;;20.60;;
37903;SDS011;23738;50.422;18.758;2023-12-14T13:11:47;34.50;;;18.10;;
37903;SDS011;23738;50.422;18.758;2023-12-14T13:14:17;31.90;;;20.70;;
37903;SDS011;23738;50.422;18.758;2023-12-14T13:16:47;28.50;;;18.40;;
37903;SDS011;23738;50.422;18.758;2023-12-14T13:19:17;29.10;;;19.50;;
37903;SDS011;23738;50.422;18.758;2023-12-14T13:21:47;37.20;;;22.60;;
37903;SDS011;23738;50.422;18.758;2023-12-14T13:24:16;38.80;;;24.00;;
37903;SDS011;23738;50.422;18.758;2023-12-14T13:26:46;37.90;;;22.80;;
37903;SDS011;23738;50.422;18.758;2023-12-14T13:29:17;39.90;;;23.40;;
37903;SDS011;23738;50.422;18.758;2023-12-14T13:31:47;44.30;;;23.40;;
37903;SDS011;23738;50.422;18.758;2023-12-14T13:34:17;43.90;;;26.60;;
37903;SDS011;23738;50.422;18.758;2023-12-14T13:36:46;42.90;;;25.00;;
37903;SDS011;23738;50.422;18.758;2023-12-14T13:39:16;56.60;;;27.90;;
37903;SDS011;23738;50.422;18.758;2023-12-14T13:41:46;65.30;;;30.90;;
37903;SDS011;23738;50.422;18.758;2023-12-14T13:44:16;59.90;;;28.70;;
37903;SDS011;23738;50.422;18.758;2023-12-14T13:46:46;49.00;;;24.80;;
37903;SDS011;23738;50.422;18.758;2023-12-14T13:49:15;44.70;;;24.30;;
37903;SDS011;23738;50.422;18.758;2023-12-14T13:51:45;43.80;;;23.80;;
37903;SDS011;23738;50.422;18.758;2023-12-14T13:54:16;47.70;;;25.00;;
37903;SDS011;23738;50.422;18.758;2023-12-14T13:56:46;47.80;;;25.10;;
37903;SDS011;23738;50.422;18.758;2023-12-14T13:59:16;46.00;;;25.00;;
37903;SDS011;23738;50.422;18.758;2023-12-14T14:01:46;47.60;;;24.00;;
37903;SDS011;23738;50.422;18.758;2023-12-14T14:04:17;49.60;;;26.00;;
37903;SDS011;23738;50.422;18.758;2023-12-14T14:06:47;43.50;;;23.40;;
37903;SDS011;23738;50.422;18.758;2023-12-14T14:09:17;46.30;;;24.20;;
37903;SDS011;23738;50.422;18.758;2023-12-14T14:11:47;46.30;;;25.30;;
37903;SDS011;23738;50.422;18.758;2023-12-14T14:14:17;49.20;;;26.30;;
37903;SDS011;23738;50.422;18.758;2023-12-14T14:16:49;47.10;;;26.20;;
37903;SDS011;23738;50.422;18.758;2023-12-14T14:19:20;47.40;;;24.60;;
37903;SDS011;23738;50.422;18.758;2023-12-14T14:21:50;44.40;;;22.50;;
37903;SDS011;23738;50.422;18.758;2023-12-14T14:24:20;48.30;;;28.40;;
37903;SDS011;23738;50.422;18.758;2023-12-14T14:26:50;43.00;;;23.20;;